N76SAM VGHS-VECC
Flight info
| Callsign | N76SAM |
|---|---|
| Flight time | N/A |
| Altitude | 5000 |
| Route | IKOGU2 IKOGU A462 BEMAK BEMA2A |
| Aircraft | A20N/M-VGD/A |
Departure
| Time | 2026-04-27 05:55 |
|---|---|
| Airport | Hazrat Shahjalal International Airport (VGHS) |
Arrival
| Time | N/A |
|---|---|
| Airport | Netaji Subhash Chandra Bose International Airport (VECC) |
| Time | Latitude | Longitude | Altitude | Speed | Heading |
|---|---|---|---|---|---|
| 2026-04-27 05:54 | 23.67519 | 90.16677 | 5017 ft | 373 kts | 236° |
| 2026-04-27 05:55 | 23.66048 | 90.14310 | 5011 ft | 373 kts | 236° |
| 2026-04-27 05:55 | 23.64590 | 90.11962 | 5012 ft | 373 kts | 236° |
| 2026-04-27 05:55 | 23.63154 | 90.09652 | 5009 ft | 373 kts | 236° |
| 2026-04-27 05:55 | 23.61710 | 90.07293 | 5009 ft | 373 kts | 237° |
| 2026-04-27 05:56 | 23.60311 | 90.04908 | 5004 ft | 373 kts | 238° |
| 2026-04-27 05:56 | 23.58932 | 90.02499 | 4999 ft | 373 kts | 238° |
| 2026-04-27 05:56 | 23.57572 | 90.00092 | 4996 ft | 373 kts | 238° |
| 2026-04-27 05:56 | 23.56214 | 89.97671 | 5001 ft | 373 kts | 239° |
| 2026-04-27 05:57 | 23.54863 | 89.95255 | 5003 ft | 373 kts | 239° |
| 2026-04-27 05:57 | 23.53513 | 89.92835 | 5013 ft | 373 kts | 239° |
| 2026-04-27 05:57 | 23.52164 | 89.90416 | 5013 ft | 373 kts | 239° |
| 2026-04-27 05:57 | 23.50833 | 89.88029 | 5016 ft | 373 kts | 239° |
| 2026-04-27 05:58 | 23.49484 | 89.85614 | 5012 ft | 373 kts | 239° |
| 2026-04-27 05:58 | 23.48133 | 89.83200 | 4999 ft | 373 kts | 239° |
| 2026-04-27 05:58 | 23.46780 | 89.80782 | 4992 ft | 373 kts | 239° |
| 2026-04-27 05:58 | 23.45420 | 89.78351 | 5008 ft | 380 kts | 239° |
| 2026-04-27 05:59 | 23.44037 | 89.75885 | 4998 ft | 380 kts | 239° |
| 2026-04-27 05:59 | 23.42656 | 89.73423 | 5008 ft | 381 kts | 239° |
| 2026-04-27 05:59 | 23.41276 | 89.70966 | 5005 ft | 380 kts | 239° |
| 2026-04-27 05:59 | 23.39910 | 89.68541 | 5001 ft | 381 kts | 238° |
| 2026-04-27 06:00 | 23.37090 | 89.63655 | 4994 ft | 380 kts | 238° |
| 2026-04-27 06:00 | 23.35660 | 89.61223 | 4996 ft | 381 kts | 237° |
| 2026-04-27 06:00 | 23.34227 | 89.58802 | 5005 ft | 380 kts | 237° |
| 2026-04-27 06:01 | 23.33274 | 89.57200 | 5002 ft | 380 kts | 237° |
| 2026-04-27 06:01 | 23.31832 | 89.54779 | 4998 ft | 381 kts | 237° |
| 2026-04-27 06:01 | 23.30388 | 89.52361 | 4993 ft | 380 kts | 237° |
| 2026-04-27 06:01 | 23.28945 | 89.49948 | 5002 ft | 381 kts | 237° |
| 2026-04-27 06:02 | 23.27030 | 89.46749 | 5006 ft | 381 kts | 237° |
| 2026-04-27 06:02 | 23.26053 | 89.45118 | 5006 ft | 380 kts | 237° |
| 2026-04-27 06:02 | 23.24609 | 89.42708 | 4998 ft | 381 kts | 237° |
| 2026-04-27 06:02 | 23.23180 | 89.40326 | 4996 ft | 381 kts | 237° |
| 2026-04-27 06:03 | 23.21729 | 89.37910 | 5001 ft | 380 kts | 237° |
| 2026-04-27 06:03 | 23.20281 | 89.35499 | 4997 ft | 380 kts | 237° |
| 2026-04-27 06:03 | 23.18832 | 89.33089 | 4999 ft | 381 kts | 237° |
| 2026-04-27 06:03 | 23.17381 | 89.30678 | 5006 ft | 381 kts | 237° |
| 2026-04-27 06:04 | 23.15933 | 89.28273 | 5000 ft | 380 kts | 237° |
| 2026-04-27 06:04 | 23.14485 | 89.25866 | 5004 ft | 381 kts | 237° |
| 2026-04-27 06:04 | 23.13033 | 89.23455 | 4998 ft | 381 kts | 237° |
| 2026-04-27 06:04 | 23.11585 | 89.21053 | 5006 ft | 380 kts | 237° |
| 2026-04-27 06:05 | 23.10151 | 89.18676 | 5011 ft | 381 kts | 237° |
| 2026-04-27 06:05 | 23.08697 | 89.16268 | 5010 ft | 381 kts | 237° |
| 2026-04-27 06:05 | 23.07247 | 89.13864 | 5000 ft | 380 kts | 237° |
| 2026-04-27 06:05 | 23.05794 | 89.11458 | 5009 ft | 381 kts | 237° |
| 2026-04-27 06:06 | 23.04339 | 89.09051 | 5012 ft | 381 kts | 237° |
| 2026-04-27 06:06 | 23.02882 | 89.06639 | 5007 ft | 380 kts | 237° |
| 2026-04-27 06:06 | 23.01430 | 89.04237 | 5003 ft | 381 kts | 237° |
| 2026-04-27 06:06 | 22.99975 | 89.01834 | 5001 ft | 381 kts | 237° |
| 2026-04-27 06:07 | 22.98522 | 88.99431 | 4996 ft | 380 kts | 237° |
| 2026-04-27 06:07 | 22.97087 | 88.97059 | 5002 ft | 381 kts | 237° |
| 2026-04-27 06:07 | 22.95631 | 88.94658 | 5008 ft | 381 kts | 237° |
| 2026-04-27 06:07 | 22.94165 | 88.92261 | 5005 ft | 380 kts | 236° |
| 2026-04-27 06:08 | 22.92679 | 88.89886 | 5002 ft | 381 kts | 236° |
| 2026-04-27 06:08 | 22.91173 | 88.87516 | 4995 ft | 381 kts | 235° |
| 2026-04-27 06:08 | 22.89658 | 88.85157 | 4996 ft | 380 kts | 235° |
| 2026-04-27 06:08 | 22.88136 | 88.82807 | 5002 ft | 381 kts | 235° |
| 2026-04-27 06:09 | 22.86608 | 88.80459 | 4991 ft | 380 kts | 235° |
| 2026-04-27 06:09 | 22.85075 | 88.78165 | 4989 ft | 380 kts | 231° |
| 2026-04-27 06:09 | 22.82969 | 88.76397 | 4989 ft | 382 kts | 205° |
| 2026-04-27 06:09 | 22.80427 | 88.75772 | 5013 ft | 381 kts | 184° |
| 2026-04-27 06:10 | 22.77780 | 88.75536 | 5048 ft | 382 kts | 188° |
| 2026-04-27 06:10 | 22.75140 | 88.75741 | 5036 ft | 382 kts | 163° |
| 2026-04-27 06:10 | 22.72849 | 88.77169 | 5019 ft | 384 kts | 137° |
| 2026-04-27 06:10 | 22.71364 | 88.79544 | 5009 ft | 384 kts | 111° |
| 2026-04-27 06:11 | 22.70982 | 88.82385 | 5004 ft | 384 kts | 85° |
| 2026-04-27 06:11 | 22.71566 | 88.85208 | 5009 ft | 384 kts | 72° |
| 2026-04-27 06:11 | 22.72522 | 88.87906 | 5005 ft | 384 kts | 66° |
| 2026-04-27 06:11 | 22.73683 | 88.90518 | 5007 ft | 384 kts | 62° |
| 2026-04-27 06:12 | 22.74967 | 88.93017 | 5004 ft | 384 kts | 59° |
| 2026-04-27 06:12 | 22.76372 | 88.95484 | 5013 ft | 384 kts | 57° |
| 2026-04-27 06:12 | 22.77941 | 88.97835 | 5004 ft | 383 kts | 51° |
| 2026-04-27 06:12 | 22.79849 | 88.99847 | 5002 ft | 384 kts | 38° |
| 2026-04-27 06:13 | 22.82188 | 89.01231 | 5009 ft | 383 kts | 20° |
| 2026-04-27 06:13 | 22.84792 | 89.01748 | 5013 ft | 382 kts | 2° |
| 2026-04-27 06:13 | 22.87407 | 89.01321 | 5021 ft | 382 kts | 342° |
| 2026-04-27 06:13 | 22.89742 | 88.99986 | 5006 ft | 380 kts | 323° |
| 2026-04-27 06:14 | 22.91522 | 88.97928 | 5005 ft | 381 kts | 304° |
| 2026-04-27 06:14 | 22.92601 | 88.95318 | 5009 ft | 380 kts | 284° |
| 2026-04-27 06:14 | 22.92788 | 88.92482 | 5013 ft | 380 kts | 262° |
| 2026-04-27 06:14 | 22.91979 | 88.89757 | 5014 ft | 381 kts | 247° |
| 2026-04-27 06:15 | 22.90844 | 88.87161 | 5013 ft | 381 kts | 243° |
| 2026-04-27 06:15 | 22.89596 | 88.84633 | 5010 ft | 380 kts | 241° |
| 2026-04-27 06:15 | 22.88285 | 88.82138 | 5014 ft | 381 kts | 240° |
| 2026-04-27 06:15 | 22.86933 | 88.79654 | 5006 ft | 381 kts | 239° |
| 2026-04-27 06:16 | 22.85572 | 88.77192 | 5007 ft | 380 kts | 239° |
| 2026-04-27 06:16 | 22.84206 | 88.74733 | 5009 ft | 380 kts | 239° |
| 2026-04-27 06:16 | 22.82846 | 88.72267 | 5009 ft | 381 kts | 239° |
| 2026-04-27 06:16 | 22.81503 | 88.69831 | 5012 ft | 381 kts | 239° |
| 2026-04-27 06:17 | 22.80293 | 88.67298 | 4995 ft | 370 kts | 252° |
| 2026-04-27 06:17 | 22.80078 | 88.64690 | 5000 ft | 332 kts | 279° |
| 2026-04-27 06:17 | 22.80930 | 88.62518 | 5019 ft | 301 kts | 308° |
| 2026-04-27 06:17 | 22.82296 | 88.60934 | 5005 ft | 275 kts | 315° |
| 2026-04-27 06:18 | 22.83616 | 88.59559 | 5005 ft | 254 kts | 316° |
| 2026-04-27 06:18 | 22.84831 | 88.58256 | 4989 ft | 234 kts | 314° |
| 2026-04-27 06:18 | 22.85853 | 88.56995 | 5000 ft | 218 kts | 304° |
| 2026-04-27 06:18 | 22.86638 | 88.55611 | 5010 ft | 214 kts | 297° |
| 2026-04-27 06:19 | 22.87283 | 88.54162 | 5003 ft | 214 kts | 293° |
| 2026-04-27 06:19 | 22.87840 | 88.52667 | 5003 ft | 211 kts | 290° |
| 2026-04-27 06:19 | 22.88314 | 88.51244 | 5002 ft | 191 kts | 289° |
| 2026-04-27 06:19 | 22.88728 | 88.49868 | 4993 ft | 193 kts | 287° |
| 2026-04-27 06:20 | 22.88972 | 88.48456 | 4987 ft | 191 kts | 262° |
| 2026-04-27 06:20 | 22.88291 | 88.47291 | 5005 ft | 181 kts | 210° |
| 2026-04-27 06:20 | 22.87077 | 88.47011 | 5027 ft | 183 kts | 184° |
| 2026-04-27 06:20 | 22.85814 | 88.46940 | 5020 ft | 181 kts | 182° |
| 2026-04-27 06:21 | 22.84550 | 88.46876 | 5019 ft | 182 kts | 184° |
| 2026-04-27 06:21 | 22.83284 | 88.46800 | 5026 ft | 182 kts | 183° |
| 2026-04-27 06:21 | 22.82021 | 88.46712 | 5020 ft | 181 kts | 185° |
| 2026-04-27 06:21 | 22.80776 | 88.46593 | 5017 ft | 182 kts | 186° |
| 2026-04-27 06:22 | 22.79516 | 88.46452 | 5009 ft | 181 kts | 187° |
| 2026-04-27 06:22 | 22.78262 | 88.46297 | 5011 ft | 182 kts | 187° |
| 2026-04-27 06:22 | 22.77001 | 88.46139 | 5011 ft | 182 kts | 187° |
| 2026-04-27 06:22 | 22.75744 | 88.45989 | 5012 ft | 182 kts | 186° |
| 2026-04-27 06:23 | 22.74483 | 88.45841 | 5011 ft | 182 kts | 187° |
| 2026-04-27 06:23 | 22.73228 | 88.45690 | 5010 ft | 182 kts | 186° |
| 2026-04-27 06:23 | 22.71965 | 88.45543 | 5008 ft | 182 kts | 187° |
| 2026-04-27 06:23 | 22.70712 | 88.45395 | 5006 ft | 182 kts | 187° |
| 2026-04-27 06:24 | 22.69451 | 88.45247 | 5002 ft | 182 kts | 187° |
| 2026-04-27 06:24 | 22.68190 | 88.45099 | 5002 ft | 182 kts | 187° |
| 2026-04-27 06:24 | 22.66933 | 88.44936 | 5006 ft | 181 kts | 192° |
| 2026-04-27 06:24 | 22.65809 | 88.44350 | 5012 ft | 181 kts | 212° |
| 2026-04-27 06:25 | 22.64618 | 88.44049 | 5014 ft | 182 kts | 178° |
| 2026-04-27 06:25 | 22.63349 | 88.44112 | 5006 ft | 182 kts | 179° |
| 2026-04-27 06:25 | 22.62081 | 88.44132 | 4999 ft | 181 kts | 180° |
| 2026-04-27 06:25 | 22.60814 | 88.44119 | 5000 ft | 182 kts | 181° |
| 2026-04-27 06:26 | 22.59544 | 88.44063 | 5001 ft | 182 kts | 184° |
| 2026-04-27 06:26 | 22.58285 | 88.43934 | 5004 ft | 182 kts | 187° |
| 2026-04-27 06:26 | 22.57023 | 88.43784 | 5010 ft | 182 kts | 187° |
| 2026-04-27 06:26 | 22.55767 | 88.43636 | 4995 ft | 181 kts | 187° |
| 2026-04-27 06:27 | 22.54512 | 88.43490 | 4992 ft | 182 kts | 187° |
| 2026-04-27 06:27 | 22.53263 | 88.43345 | 4994 ft | 182 kts | 187° |
| 2026-04-27 06:27 | 22.52007 | 88.43195 | 5001 ft | 182 kts | 187° |
| 2026-04-27 06:27 | 22.50751 | 88.43048 | 4992 ft | 181 kts | 186° |
| 2026-04-27 06:28 | 22.49489 | 88.42905 | 4992 ft | 182 kts | 186° |
| 2026-04-27 06:28 | 22.48229 | 88.42762 | 4998 ft | 182 kts | 186° |
| 2026-04-27 06:28 | 22.46974 | 88.42613 | 4999 ft | 181 kts | 187° |
| 2026-04-27 06:28 | 22.45715 | 88.42458 | 5006 ft | 182 kts | 188° |
| 2026-04-27 06:29 | 22.44456 | 88.42291 | 4999 ft | 181 kts | 187° |
| 2026-04-27 06:29 | 22.43202 | 88.42144 | 5001 ft | 182 kts | 186° |
| 2026-04-27 06:29 | 22.41954 | 88.42004 | 5001 ft | 182 kts | 186° |
| 2026-04-27 06:29 | 22.40697 | 88.41865 | 4997 ft | 181 kts | 186° |
| 2026-04-27 06:30 | 22.39438 | 88.41725 | 4997 ft | 182 kts | 186° |
| 2026-04-27 06:30 | 22.38177 | 88.41581 | 4998 ft | 182 kts | 186° |
| 2026-04-27 06:30 | 22.36920 | 88.41436 | 4998 ft | 181 kts | 187° |
| 2026-04-27 06:30 | 22.35659 | 88.41289 | 5002 ft | 182 kts | 187° |
| 2026-04-27 06:31 | 22.34399 | 88.41142 | 5004 ft | 182 kts | 187° |
| 2026-04-27 06:31 | 22.33141 | 88.40995 | 5007 ft | 182 kts | 187° |
| 2026-04-27 06:31 | 22.31884 | 88.40846 | 5011 ft | 182 kts | 187° |
| 2026-04-27 06:31 | 22.30627 | 88.40695 | 5000 ft | 181 kts | 187° |
| 2026-04-27 06:32 | 22.29365 | 88.40545 | 5008 ft | 182 kts | 187° |
| 2026-04-27 06:32 | 22.28122 | 88.40397 | 5005 ft | 181 kts | 187° |
| 2026-04-27 06:32 | 22.26868 | 88.40252 | 5005 ft | 182 kts | 186° |
| 2026-04-27 06:32 | 22.25606 | 88.40109 | 5006 ft | 182 kts | 187° |
| 2026-04-27 06:33 | 22.24348 | 88.39964 | 5006 ft | 181 kts | 187° |
| 2026-04-27 06:33 | 22.23093 | 88.39816 | 4994 ft | 181 kts | 187° |
| 2026-04-27 06:33 | 22.21834 | 88.39671 | 4994 ft | 182 kts | 187° |
| 2026-04-27 06:33 | 22.20573 | 88.39522 | 5003 ft | 182 kts | 187° |